Time;durP1;ratioP1;P1;durP2;ratioP2;P2;SDS_P1;SDS_P2;PMS_P1;PMS_P2;Temp;Humidity;BMP_temperature;BMP_pressure;BME280_temperature;BME280_humidity;BME280_pressure;Samples;Min_cycle;Max_cycle;Signal;HPM_P1;HPM_P2
2023/10/02 00:03:29;;;;;;;23.67;11.60;;;18.10;89.60;;;;;;5015774;28;20507;-74
2023/10/02 00:05:55;;;;;;;22.27;12.13;;;18.10;89.60;;;;;;5015631;28;20349;-74
2023/10/02 00:11:37;;;;;;;19.50;10.98;;;18.00;89.70;;;;;;5013893;28;20048;-78
2023/10/02 00:14:19;;;;;;;18.40;10.88;;;18.00;89.80;;;;;;5020578;28;20046;-74
2023/10/02 00:17:00;;;;;;;21.25;10.63;;;18.00;89.90;;;;;;5013664;28;20033;-73
2023/10/02 00:19:47;;;;;;;20.00;11.27;;;17.90;89.90;;;;;;5018838;28;20037;-74
2023/10/02 00:25:16;;;;;;;18.90;10.63;;;17.80;90.10;;;;;;5016875;28;20044;-71
2023/10/02 00:27:50;;;;;;;21.00;10.68;;;17.80;90.20;;;;;;5018616;28;20027;-72
2023/10/02 00:30:17;;;;;;;20.20;11.82;;;17.80;90.30;;;;;;5020324;28;20070;-74
2023/10/02 00:32:47;;;;;;;20.38;11.52;;;17.70;90.40;;;;;;5015415;28;20441;-74
2023/10/02 00:35:13;;;;;;;24.63;13.05;;;17.70;90.60;;;;;;5019321;28;20037;-74
2023/10/02 00:37:43;;;;;;;19.65;11.40;;;17.70;90.60;;;;;;5012406;28;20551;-73
2023/10/02 00:40:30;;;;;;;20.50;10.52;;;17.70;90.60;;;;;;5016510;28;20515;-73
2023/10/02 00:43:00;;;;;;;19.15;11.18;;;17.70;90.60;;;;;;5017789;28;20185;-74
2023/10/02 00:45:29;;;;;;;21.27;11.80;;;17.70;90.50;;;;;;5019993;28;20072;-73
2023/10/02 00:48:24;;;;;;;20.85;10.90;;;17.70;90.50;;;;;;5010000;28;20036;-74
2023/10/02 00:50:49;;;;;;;19.13;11.65;;;17.60;90.60;;;;;;5016738;28;20741;-75
2023/10/02 00:53:24;;;;;;;19.92;10.80;;;17.60;90.70;;;;;;5018835;28;20498;-73
2023/10/02 00:55:51;;;;;;;21.15;11.38;;;17.60;90.70;;;;;;5016707;28;20042;-73
2023/10/02 00:58:18;;;;;;;20.13;10.55;;;17.60;90.80;;;;;;5014325;28;20042;-73
2023/10/02 01:00:50;;;;;;;20.52;10.60;;;17.50;90.90;;;;;;5017267;28;20030;-74
2023/10/02 01:03:16;;;;;;;19.83;11.02;;;17.50;90.90;;;;;;5023352;28;20046;-73
2023/10/02 01:05:50;;;;;;;20.80;10.80;;;17.50;91.00;;;;;;5019799;28;20029;-77
2023/10/02 01:08:24;;;;;;;19.57;10.90;;;17.40;91.00;;;;;;5021747;28;20052;-73
2023/10/02 01:10:58;;;;;;;19.65;10.25;;;17.50;91.00;;;;;;5021441;28;20504;-74
2023/10/02 01:13:32;;;;;;;19.10;10.43;;;17.40;91.00;;;;;;5027353;28;20120;-77
2023/10/02 01:16:00;;;;;;;17.50;10.40;;;17.40;91.10;;;;;;5018702;28;20029;-75
2023/10/02 01:18:30;;;;;;;22.60;11.05;;;17.40;91.20;;;;;;5016825;28;20389;-77
2023/10/02 01:21:00;;;;;;;21.83;11.85;;;17.40;91.30;;;;;;5012860;28;20534;-75
2023/10/02 01:23:28;;;;;;;18.88;10.70;;;17.30;91.30;;;;;;5018175;28;20040;-74
2023/10/02 01:26:00;;;;;;;19.75;11.05;;;17.30;91.30;;;;;;5015946;28;20088;-76
2023/10/02 01:28:29;;;;;;;20.23;11.80;;;17.30;91.40;;;;;;5014625;28;20049;-76
2023/10/02 01:30:55;;;;;;;19.92;11.60;;;17.30;91.50;;;;;;5014913;28;21069;-77
2023/10/02 01:33:22;;;;;;;19.65;11.07;;;17.30;91.50;;;;;;5022686;28;20588;-74
2023/10/02 01:35:50;;;;;;;22.58;11.73;;;17.30;91.50;;;;;;5020382;28;20029;-74
2023/10/02 01:38:32;;;;;;;21.33;11.35;;;17.30;91.60;;;;;;5015559;28;20432;-76
2023/10/02 01:41:06;;;;;;;20.02;11.32;;;17.30;91.70;;;;;;5018610;28;20076;-76
2023/10/02 01:43:45;;;;;;;;;;;17.30;91.60;;;;;;5022180;28;20484;-76
2023/10/02 01:46:17;;;;;;;20.73;11.63;;;17.20;91.70;;;;;;5016213;28;19913;-76
2023/10/02 01:48:44;;;;;;;20.25;11.10;;;17.20;91.70;;;;;;5019584;28;20084;-73
2023/10/02 01:51:20;;;;;;;22.83;11.60;;;17.20;91.70;;;;;;5022917;28;20309;-71
2023/10/02 01:53:49;;;;;;;19.55;10.88;;;17.20;91.80;;;;;;5019544;28;20063;-75
2023/10/02 01:56:16;;;;;;;20.85;10.45;;;17.20;91.80;;;;;;5015048;28;20060;-74
2023/10/02 01:58:43;;;;;;;21.95;10.45;;;17.10;91.80;;;;;;5011547;28;20038;-75
2023/10/02 02:01:09;;;;;;;19.42;10.55;;;17.10;91.80;;;;;;5018694;28;20046;-75
2023/10/02 02:03:46;;;;;;;19.52;10.82;;;17.10;91.90;;;;;;5023350;28;20038;-75
2023/10/02 02:06:16;;;;;;;20.38;11.43;;;17.10;91.90;;;;;;5015634;28;20459;-76
2023/10/02 02:08:43;;;;;;;20.98;12.15;;;17.10;92.00;;;;;;5028053;28;20072;-75
2023/10/02 02:11:16;;;;;;;19.88;10.27;;;17.10;92.00;;;;;;5014829;28;20500;-75
2023/10/02 02:13:50;;;;;;;19.98;10.98;;;17.10;92.00;;;;;;5020581;28;20368;-74
2023/10/02 02:16:33;;;;;;;21.98;11.77;;;17.00;92.10;;;;;;5015358;28;20060;-72
2023/10/02 02:19:05;;;;;;;20.38;11.73;;;17.10;92.10;;;;;;5014908;28;20689;-73
2023/10/02 02:21:32;;;;;;;23.42;12.63;;;17.00;92.10;;;;;;5019131;28;20109;-72
2023/10/02 02:24:06;;;;;;;20.13;11.23;;;17.00;92.20;;;;;;5017274;28;20289;-77
2023/10/02 02:26:39;;;;;;;23.13;11.52;;;17.00;92.30;;;;;;5040977;28;20034;-76
2023/10/02 02:29:23;;;;;;;20.73;11.60;;;17.10;92.30;;;;;;5021869;28;20045;-72
2023/10/02 02:31:55;;;;;;;22.45;11.63;;;17.00;92.30;;;;;;5021784;28;20048;-73
2023/10/02 02:34:25;;;;;;;22.20;12.02;;;17.10;92.20;;;;;;5020317;28;20075;-73
2023/10/02 02:36:51;;;;;;;22.98;11.98;;;17.00;92.20;;;;;;5017582;28;20112;-75
2023/10/02 02:39:25;;;;;;;21.60;11.73;;;17.10;92.30;;;;;;5017823;28;20044;-77
2023/10/02 02:44:46;;;;;;;21.30;11.73;;;17.00;92.40;;;;;;5014608;28;20092;-74
2023/10/02 02:47:16;;;;;;;22.92;11.73;;;17.10;92.40;;;;;;5013117;28;20123;-74
2023/10/02 02:49:58;;;;;;;21.23;11.60;;;17.10;92.40;;;;;;5017379;28;20053;-72
2023/10/02 02:52:26;;;;;;;23.17;12.32;;;17.10;92.40;;;;;;5015390;28;20053;-74
2023/10/02 02:54:59;;;;;;;21.90;12.43;;;17.00;92.50;;;;;;5018281;28;20034;-76
2023/10/02 02:57:33;;;;;;;21.42;12.30;;;17.00;92.60;;;;;;5020945;28;20049;-76
2023/10/02 03:02:53;;;;;;;20.55;11.38;;;16.90;92.60;;;;;;5016576;28;20036;-75
2023/10/02 03:05:22;;;;;;;18.70;10.70;;;16.90;92.60;;;;;;5020289;28;20037;-75
2023/10/02 03:07:56;;;;;;;19.83;11.10;;;16.90;92.60;;;;;;5019198;28;20464;-74
2023/10/02 03:10:25;;;;;;;21.67;11.68;;;16.80;92.60;;;;;;5018749;28;20052;-75
2023/10/02 03:12:51;;;;;;;22.33;10.95;;;16.80;92.70;;;;;;5019009;28;20014;-74
2023/10/02 03:15:45;;;;;;;25.17;12.05;;;16.80;92.70;;;;;;5013574;28;20117;-75
2023/10/02 03:18:54;;;;;;;22.10;11.48;;;16.70;92.80;;;;;;5013770;28;20057;-76
2023/10/02 03:20:54;;;;;;;22.23;12.65;;;16.70;92.80;;;;;;4997211;28;20040;-73
2023/10/02 03:23:20;;;;;;;21.38;11.55;;;16.60;92.80;;;;;;5012436;28;20034;-75
2023/10/02 03:25:47;;;;;;;24.52;13.00;;;16.60;92.90;;;;;;5015259;28;20447;-74
2023/10/02 03:28:27;;;;;;;22.85;11.63;;;16.60;92.90;;;;;;5015907;28;20038;-76
2023/10/02 03:30:56;;;;;;;22.33;12.02;;;16.60;92.90;;;;;;5006364;28;20055;-73
2023/10/02 03:33:22;;;;;;;24.00;13.48;;;16.50;93.00;;;;;;5019743;28;20531;-76
2023/10/02 03:36:07;;;;;;;23.02;11.20;;;16.50;93.00;;;;;;5017201;28;20041;-73
2023/10/02 03:38:43;;;;;;;21.58;11.70;;;16.50;93.10;;;;;;5020369;28;20057;-72
2023/10/02 03:41:11;;;;;;;23.20;12.18;;;16.50;93.10;;;;;;5015456;28;20030;-75
2023/10/02 03:43:43;;;;;;;21.25;13.10;;;16.40;93.10;;;;;;5013115;28;20488;-74
2023/10/02 03:46:22;;;;;;;23.05;11.80;;;16.50;93.30;;;;;;5018511;28;20450;-77
2023/10/02 03:48:58;;;;;;;22.65;12.05;;;16.40;93.20;;;;;;5010662;28;20200;-74
2023/10/02 03:51:40;;;;;;;25.20;12.02;;;16.40;93.50;;;;;;5016093;28;20048;-73
2023/10/02 03:54:22;;;;;;;20.83;11.80;;;16.50;93.70;;;;;;5013904;28;20041;-74
2023/10/02 03:56:50;;;;;;;23.58;12.80;;;16.40;93.60;;;;;;5016189;28;20062;-74
2023/10/02 03:59:17;;;;;;;29.65;13.70;;;16.40;93.60;;;;;;5020369;28;20366;-74
2023/10/02 04:01:43;;;;;;;22.33;11.75;;;16.40;93.70;;;;;;5018296;28;20569;-74
2023/10/02 04:06:38;;;;;;;21.90;11.90;;;16.40;93.70;;;;;;5015329;28;20064;-71
2023/10/02 04:11:54;;;;;;;23.17;12.02;;;16.30;93.70;;;;;;5017341;28;20037;-75
2023/10/02 04:14:38;;;;;;;21.60;11.68;;;16.30;93.80;;;;;;5011801;28;20181;-73
2023/10/02 04:17:14;;;;;;;23.55;13.27;;;16.30;93.80;;;;;;5019001;28;20029;-75
2023/10/02 04:19:49;;;;;;;24.15;13.00;;;16.30;93.80;;;;;;5015741;28;20308;-72
2023/10/02 04:22:35;;;;;;;19.65;11.23;;;16.30;93.90;;;;;;5007960;28;20022;-75
2023/10/02 04:25:04;;;;;;;25.45;11.93;;;16.20;93.90;;;;;;5018389;28;20044;-75
2023/10/02 04:28:08;;;;;;;23.13;13.00;;;16.20;94.00;;;;;;5018055;28;20105;-77
2023/10/02 04:30:26;;;;;;;23.48;12.57;;;16.20;94.00;;;;;;5016772;28;20046;-74
2023/10/02 04:32:58;;;;;;;23.23;12.32;;;16.20;94.00;;;;;;5016402;28;20084;-76
2023/10/02 04:38:09;;;;;;;20.70;11.57;;;16.10;94.00;;;;;;5016816;28;20103;-74
2023/10/02 04:40:57;;;;;;;22.17;12.50;;;16.10;94.20;;;;;;5017106;28;20400;-74
2023/10/02 04:43:23;;;;;;;20.33;12.35;;;16.10;94.20;;;;;;5018008;28;20038;-74
2023/10/02 04:46:08;;;;;;;20.52;11.65;;;16.10;94.20;;;;;;5014042;28;20033;-77
2023/10/02 04:48:42;;;;;;;21.58;11.93;;;16.10;94.30;;;;;;5019098;28;20037;-76
2023/10/02 04:51:12;;;;;;;21.95;12.57;;;16.00;94.30;;;;;;5020928;28;20061;-74
2023/10/02 04:53:45;;;;;;;26.92;13.10;;;16.10;94.40;;;;;;5016005;28;20970;-73
2023/10/02 04:58:47;;;;;;;22.08;12.45;;;16.10;94.40;;;;;;5020255;28;20476;-74
2023/10/02 05:01:24;;;;;;;24.05;13.07;;;16.10;94.40;;;;;;5013964;28;20033;-75
2023/10/02 05:03:51;;;;;;;24.83;12.52;;;16.10;94.50;;;;;;5016427;28;20472;-79
2023/10/02 05:06:39;;;;;;;24.65;12.95;;;16.10;94.50;;;;;;5011944;28;20551;-74
2023/10/02 05:11:46;;;;;;;22.65;11.88;;;16.10;94.50;;;;;;5014464;28;20736;-74
2023/10/02 05:14:14;;;;;;;22.83;12.15;;;16.10;94.60;;;;;;5015076;28;20034;-77
2023/10/02 05:16:42;;;;;;;21.23;12.30;;;16.10;94.60;;;;;;5014468;28;20788;-73
2023/10/02 05:19:09;;;;;;;22.05;12.57;;;16.00;94.60;;;;;;5013724;28;20442;-72
2023/10/02 05:21:39;;;;;;;22.60;12.85;;;16.00;94.60;;;;;;5013377;28;20518;-74
2023/10/02 05:24:06;;;;;;;22.38;12.60;;;16.10;94.70;;;;;;5011030;28;20053;-75
2023/10/02 05:26:43;;;;;;;22.13;12.45;;;16.00;94.70;;;;;;5014263;28;20377;-76
2023/10/02 05:29:36;;;;;;;25.50;14.10;;;16.10;94.70;;;;;;5017375;28;20036;-76
2023/10/02 05:32:19;;;;;;;22.20;12.23;;;16.10;94.70;;;;;;5014837;28;20257;-73
2023/10/02 05:34:58;;;;;;;19.85;11.85;;;16.10;94.70;;;;;;5017943;28;20529;-74
2023/10/02 05:37:30;;;;;;;24.60;13.25;;;16.10;94.70;;;;;;5012467;28;20030;-76
2023/10/02 05:40:32;;;;;;;22.00;12.50;;;16.10;94.60;;;;;;5016988;28;20040;-72
2023/10/02 05:42:53;;;;;;;23.48;12.63;;;16.10;94.60;;;;;;5016050;28;20048;-74
2023/10/02 05:45:37;;;;;;;24.38;13.60;;;16.10;94.60;;;;;;5019853;28;20029;-76
2023/10/02 05:48:07;;;;;;;24.33;12.38;;;16.10;94.50;;;;;;5011408;28;20345;-72
2023/10/02 05:50:34;;;;;;;23.13;13.02;;;16.10;94.60;;;;;;5012522;28;20045;-77
2023/10/02 05:52:59;;;;;;;26.02;14.10;;;16.10;94.50;;;;;;5011381;28;20079;-75
2023/10/02 05:55:25;;;;;;;24.58;13.35;;;16.10;94.50;;;;;;5014604;28;20037;-74
2023/10/02 05:57:54;;;;;;;21.92;12.65;;;16.10;94.50;;;;;;5013710;28;20025;-74
2023/10/02 06:00:20;;;;;;;25.10;13.25;;;16.10;94.50;;;;;;5012398;28;20038;-77
2023/10/02 06:02:58;;;;;;;23.38;12.43;;;16.10;94.50;;;;;;5012432;28;20021;-76
2023/10/02 06:05:24;;;;;;;24.02;13.32;;;16.10;94.50;;;;;;5010751;28;20046;-74
2023/10/02 06:07:51;;;;;;;20.65;11.80;;;16.10;94.50;;;;;;5011316;28;20040;-75
2023/10/02 06:10:26;;;;;;;23.15;12.60;;;16.10;94.50;;;;;;5011831;28;20038;-75
2023/10/02 06:13:02;;;;;;;21.65;12.45;;;16.20;94.50;;;;;;5014613;28;20402;-77
2023/10/02 06:15:48;;;;;;;21.55;12.65;;;16.20;94.50;;;;;;5012770;28;20488;-74
2023/10/02 06:18:27;;;;;;;25.42;13.73;;;16.20;94.40;;;;;;5010861;28;21371;-76
2023/10/02 06:21:02;;;;;;;24.02;13.95;;;16.20;94.30;;;;;;5011745;28;20037;-74
2023/10/02 06:23:38;;;;;;;22.75;12.80;;;16.20;94.30;;;;;;5013486;28;20531;-74
2023/10/02 06:26:09;;;;;;;24.50;13.13;;;16.20;94.30;;;;;;5011198;28;20266;-76
2023/10/02 06:28:35;;;;;;;23.65;13.65;;;16.30;94.30;;;;;;5011092;28;20363;-76
2023/10/02 06:31:01;;;;;;;28.80;15.07;;;16.40;94.20;;;;;;5008369;28;20057;-77
2023/10/02 06:33:27;;;;;;;24.45;14.02;;;16.50;94.00;;;;;;5013907;28;20026;-73
2023/10/02 06:35:57;;;;;;;25.83;13.15;;;16.50;93.90;;;;;;5017143;28;20038;-74
2023/10/02 06:38:23;;;;;;;23.90;14.43;;;16.60;93.80;;;;;;5022949;28;20045;-77
2023/10/02 06:40:59;;;;;;;27.73;14.25;;;16.60;93.70;;;;;;5011215;28;20116;-74
2023/10/02 06:43:29;;;;;;;28.95;14.27;;;16.60;93.50;;;;;;5019259;28;20039;-75
2023/10/02 06:46:06;;;;;;;25.25;14.20;;;16.70;93.40;;;;;;5019054;28;20052;-75
2023/10/02 06:48:35;;;;;;;26.60;14.30;;;16.70;93.40;;;;;;5011662;28;20040;-75
2023/10/02 06:51:05;;;;;;;24.15;12.85;;;16.80;93.20;;;;;;5021377;28;20030;-76
2023/10/02 06:53:31;;;;;;;26.63;13.98;;;16.80;93.10;;;;;;5018358;28;20046;-74
2023/10/02 06:56:06;;;;;;;23.70;14.25;;;16.80;92.90;;;;;;5020977;28;20057;-77
2023/10/02 06:58:46;;;;;;;22.60;13.27;;;16.90;92.90;;;;;;5016972;28;20057;-74
2023/10/02 07:01:13;;;;;;;23.92;14.00;;;17.00;93.00;;;;;;5015600;28;20966;-74
2023/10/02 07:03:39;;;;;;;27.30;14.50;;;17.10;92.90;;;;;;5015450;28;20380;-77
2023/10/02 07:06:08;;;;;;;24.58;13.65;;;17.10;92.80;;;;;;5010304;28;20196;-76
2023/10/02 07:08:36;;;;;;;22.83;12.45;;;17.20;92.90;;;;;;5014173;28;20044;-75
2023/10/02 07:11:10;;;;;;;26.02;14.98;;;17.30;92.90;;;;;;5021618;28;20080;-74
2023/10/02 07:13:50;;;;;;;27.35;14.73;;;17.40;92.50;;;;;;5010854;28;20100;-78
2023/10/02 07:16:17;;;;;;;22.30;13.45;;;17.50;92.30;;;;;;5016189;28;20156;-76
2023/10/02 07:18:49;;;;;;;27.55;14.75;;;17.60;92.30;;;;;;5020327;28;20037;-74
2023/10/02 07:21:21;;;;;;;24.95;14.15;;;17.70;91.80;;;;;;5012864;28;20481;-74
2023/10/02 07:23:47;;;;;;;27.50;14.35;;;17.80;91.50;;;;;;5016326;28;20034;-73
2023/10/02 07:26:19;;;;;;;26.90;14.48;;;17.80;91.20;;;;;;5015769;28;20033;-76
2023/10/02 07:28:51;;;;;;;26.70;14.48;;;17.80;91.40;;;;;;5012169;28;20462;-74
2023/10/02 07:31:21;;;;;;;33.75;15.88;;;17.90;91.30;;;;;;5011740;28;20050;-74
2023/10/02 07:33:48;;;;;;;26.88;14.88;;;17.90;91.20;;;;;;5014693;28;20111;-74
2023/10/02 07:36:15;;;;;;;31.23;15.20;;;18.00;91.10;;;;;;5014930;28;20037;-77
2023/10/02 07:38:42;;;;;;;26.45;14.73;;;18.00;91.00;;;;;;5017631;28;20480;-75
2023/10/02 07:41:23;;;;;;;27.80;14.60;;;18.10;90.60;;;;;;5013691;28;20033;-74
2023/10/02 07:43:53;;;;;;;27.98;15.20;;;18.20;90.50;;;;;;5014821;28;20036;-74
2023/10/02 07:46:23;;;;;;;28.83;14.95;;;18.30;89.90;;;;;;5016236;28;20029;-74
2023/10/02 07:49:00;;;;;;;29.13;15.05;;;18.50;89.80;;;;;;5015742;28;20467;-75
2023/10/02 07:51:37;;;;;;;27.20;14.05;;;18.60;88.90;;;;;;5021281;28;20059;-74
2023/10/02 07:54:04;;;;;;;30.17;15.13;;;18.60;89.00;;;;;;5020411;28;20037;-76
2023/10/02 07:56:30;;;;;;;28.88;15.63;;;18.80;88.50;;;;;;5018922;28;20441;-73
2023/10/02 07:59:00;;;;;;;29.42;15.85;;;19.00;87.50;;;;;;5018343;28;20041;-75
2023/10/02 08:01:27;;;;;;;26.58;14.90;;;19.10;87.60;;;;;;5013014;28;20060;-75
2023/10/02 08:03:55;;;;;;;29.02;14.63;;;19.40;86.60;;;;;;5013799;28;20029;-75
2023/10/02 08:11:54;;;;;;;32.80;16.13;;;19.50;85.60;;;;;;5013758;28;20035;-74
2023/10/02 08:14:42;;;;;;;27.90;15.13;;;19.70;85.80;;;;;;5013124;28;20060;-73
2023/10/02 08:17:27;;;;;;;31.00;15.75;;;19.70;84.90;;;;;;5015144;28;20083;-76
2023/10/02 08:19:54;;;;;;;29.15;15.65;;;19.70;84.50;;;;;;5013269;28;20081;-76
2023/10/02 08:22:36;;;;;;;27.67;14.88;;;19.70;84.80;;;;;;5012221;28;20052;-76
2023/10/02 08:25:03;;;;;;;31.27;16.15;;;19.70;84.70;;;;;;5014386;28;20029;-79
2023/10/02 08:27:32;;;;;;;28.17;14.93;;;19.80;84.90;;;;;;5020097;28;20309;-76
2023/10/02 08:30:00;;;;;;;25.55;14.30;;;20.00;85.00;;;;;;5018850;28;20042;-75
2023/10/02 08:32:30;;;;;;;27.50;15.73;;;20.00;84.90;;;;;;5015068;28;20518;-75
2023/10/02 08:34:57;;;;;;;27.20;14.88;;;20.10;84.20;;;;;;5015043;28;20136;-76
2023/10/02 08:37:23;;;;;;;30.42;15.02;;;20.20;83.70;;;;;;5013231;28;20038;-77
2023/10/02 08:39:51;;;;;;;30.88;15.63;;;20.10;83.50;;;;;;5010853;28;20030;-77
2023/10/02 08:42:18;;;;;;;29.67;15.32;;;20.20;83.60;;;;;;5016043;28;20114;-73
2023/10/02 08:44:43;;;;;;;32.13;15.95;;;20.30;83.00;;;;;;5011801;28;20072;-74
2023/10/02 08:47:24;;;;;;;31.00;15.45;;;20.50;82.60;;;;;;5010638;28;20022;-77
2023/10/02 08:50:03;;;;;;;28.63;14.88;;;20.70;82.70;;;;;;5018090;28;20046;-75
2023/10/02 08:52:38;;;;;;;29.83;15.52;;;21.10;81.40;;;;;;5015596;28;20492;-75
2023/10/02 08:55:54;;;;;;;30.20;15.15;;;21.20;80.80;;;;;;5014355;28;20034;-75
2023/10/02 08:58:22;;;;;;;25.70;13.90;;;21.40;80.60;;;;;;4974355;28;20437;-74
2023/10/02 09:03:46;;;;;;;29.08;15.95;;;22.00;78.80;;;;;;5016746;28;20061;-75
2023/10/02 09:06:30;;;;;;;27.45;15.43;;;22.10;78.00;;;;;;5013392;28;20048;-76
2023/10/02 09:09:21;;;;;;;29.70;14.95;;;22.20;78.40;;;;;;5015989;28;20431;-74
2023/10/02 09:11:52;;;;;;;29.38;16.13;;;22.20;78.00;;;;;;5011659;28;20046;-75
2023/10/02 09:19:49;;;;;;;29.60;15.90;;;21.90;78.60;;;;;;5014336;28;20044;-78
2023/10/02 09:22:16;;;;;;;28.05;15.65;;;21.80;78.40;;;;;;5018294;28;20120;-76
2023/10/02 09:24:58;;;;;;;25.98;15.20;;;22.10;79.40;;;;;;5019514;28;20472;-76
2023/10/02 09:27:38;;;;;;;30.27;16.58;;;22.20;78.10;;;;;;5016265;28;20029;-78
2023/10/02 09:30:36;;;;;;;29.08;16.02;;;22.20;78.00;;;;;;5018206;28;20422;-73
2023/10/02 09:33:16;;;;;;;29.30;15.18;;;22.20;78.40;;;;;;5017058;28;20029;-73
2023/10/02 09:35:42;;;;;;;30.67;16.70;;;22.50;78.50;;;;;;5020220;28;20714;-73
2023/10/02 09:38:15;;;;;;;29.95;15.45;;;22.60;77.40;;;;;;5018995;28;20456;-73
2023/10/02 09:43:41;;;;;;;30.50;16.13;;;22.80;77.50;;;;;;5005763;28;20038;-73
2023/10/02 09:46:21;;;;;;;27.27;15.18;;;23.10;76.10;;;;;;5016278;28;20045;-76
2023/10/02 09:49:19;;;;;;;28.30;16.10;;;23.10;76.00;;;;;;5020569;28;20423;-72
2023/10/02 09:52:16;;;;;;;28.88;16.20;;;23.20;76.60;;;;;;5022482;28;20499;-75
2023/10/02 09:55:07;;;;;;;28.73;15.55;;;23.40;75.80;;;;;;5014780;28;20034;-74
2023/10/02 09:57:51;;;;;;;30.42;16.23;;;23.50;75.20;;;;;;5014876;28;20373;-76
2023/10/02 10:03:23;;;;;;;26.55;15.18;;;23.50;75.40;;;;;;5013736;28;20394;-76
2023/10/02 10:06:15;;;;;;;30.58;16.35;;;23.40;75.20;;;;;;5020044;28;20037;-73
2023/10/02 10:11:43;;;;;;;30.67;16.00;;;23.40;76.00;;;;;;5016924;28;20051;-73
2023/10/02 10:14:45;;;;;;;28.10;15.63;;;23.20;75.60;;;;;;5020403;28;20100;-73
2023/10/02 10:17:16;;;;;;;30.67;15.95;;;23.30;76.10;;;;;;4979476;28;20034;-73
2023/10/02 10:20:07;;;;;;;28.15;15.15;;;23.50;76.00;;;;;;5006056;28;20044;-75
2023/10/02 10:22:35;;;;;;;28.25;15.75;;;23.70;75.10;;;;;;5013777;28;20025;-72
2023/10/02 10:27:38;;;;;;;26.95;15.52;;;24.20;74.00;;;;;;5018572;28;20092;-74
2023/10/02 10:30:24;;;;;;;27.42;15.30;;;24.40;73.20;;;;;;5008365;28;20468;-73
2023/10/02 10:33:16;;;;;;;29.58;16.02;;;24.60;72.80;;;;;;5010978;28;20033;-74
2023/10/02 10:35:48;;;;;;;29.08;15.32;;;24.80;72.40;;;;;;5014409;28;20496;-72
2023/10/02 10:38:26;;;;;;;33.67;15.07;;;24.80;71.20;;;;;;5014415;28;20083;-73
2023/10/02 10:41:02;;;;;;;27.58;15.48;;;24.70;72.40;;;;;;5017596;28;20076;-72
2023/10/02 10:46:29;;;;;;;25.88;14.48;;;25.00;71.80;;;;;;5015003;28;20502;-73
2023/10/02 10:48:59;;;;;;;27.65;14.90;;;25.10;71.30;;;;;;5020503;28;20041;-73
2023/10/02 10:51:27;;;;;;;28.48;14.95;;;25.10;70.70;;;;;;5014461;28;20115;-72
2023/10/02 10:54:19;;;;;;;25.83;15.10;;;25.30;70.50;;;;;;5021758;28;20033;-74
2023/10/02 10:56:56;;;;;;;25.77;15.07;;;25.50;70.80;;;;;;5012355;28;20050;-74
2023/10/02 10:59:32;;;;;;;26.65;13.88;;;25.80;69.90;;;;;;5013046;28;20116;-77
2023/10/02 11:02:12;;;;;;;26.23;15.05;;;25.80;69.80;;;;;;5012402;28;20048;-78
2023/10/02 11:04:48;;;;;;;27.13;15.10;;;25.70;69.90;;;;;;5009076;28;20048;-72
2023/10/02 11:07:22;;;;;;;25.02;13.93;;;25.70;70.10;;;;;;5008485;28;20029;-73
2023/10/02 11:10:31;;;;;;;28.27;15.25;;;25.80;70.20;;;;;;5011070;28;20660;-73
2023/10/02 11:12:56;;;;;;;26.88;15.70;;;25.70;70.00;;;;;;5008702;28;20038;-74
2023/10/02 11:18:18;;;;;;;29.00;15.07;;;25.50;70.80;;;;;;5006451;28;20596;-75
2023/10/02 11:20:51;;;;;;;25.23;14.55;;;25.40;70.60;;;;;;5012945;28;20045;-72
2023/10/02 11:23:29;;;;;;;28.00;16.08;;;25.40;70.80;;;;;;5012362;28;20842;-75
2023/10/02 11:25:56;;;;;;;28.20;14.98;;;25.20;70.10;;;;;;5010071;28;20155;-74
2023/10/02 11:28:34;;;;;;;25.90;15.38;;;25.30;70.70;;;;;;5011780;28;20065;-72
2023/10/02 11:31:29;;;;;;;27.30;14.77;;;25.50;69.90;;;;;;5008745;28;20017;-73
2023/10/02 11:34:03;;;;;;;28.60;16.13;;;25.60;69.60;;;;;;5011630;28;20049;-79
2023/10/02 11:36:39;;;;;;;26.17;15.15;;;25.80;69.90;;;;;;5012673;28;20030;-74
2023/10/02 11:39:09;;;;;;;27.90;15.75;;;25.80;69.30;;;;;;5018398;28;20029;-76
2023/10/02 11:41:39;;;;;;;29.40;16.08;;;25.80;69.10;;;;;;5013412;28;20387;-75
2023/10/02 11:44:11;;;;;;;27.48;15.13;;;25.70;70.10;;;;;;5014505;28;20382;-73
2023/10/02 11:46:37;;;;;;;25.60;14.70;;;25.60;69.40;;;;;;5015237;28;20029;-74
2023/10/02 11:49:03;;;;;;;27.35;16.13;;;25.60;69.90;;;;;;5019303;28;20026;-75
2023/10/02 11:51:29;;;;;;;27.38;14.95;;;25.50;70.00;;;;;;5001134;28;20443;-75
2023/10/02 11:53:57;;;;;;;28.38;15.23;;;25.50;70.50;;;;;;5012024;28;20038;-74
2023/10/02 11:56:23;;;;;;;25.13;14.68;;;25.60;70.00;;;;;;5012030;28;20095;-76
2023/10/02 11:58:52;;;;;;;25.38;15.07;;;25.70;70.80;;;;;;5013831;28;20495;-73
2023/10/02 12:01:19;;;;;;;27.95;16.38;;;25.80;71.00;;;;;;5017097;28;20037;-75
2023/10/02 12:03:45;;;;;;;29.92;16.17;;;26.00;70.00;;;;;;5014920;28;20342;-74
2023/10/02 12:06:16;;;;;;;27.73;15.25;;;26.10;69.60;;;;;;5012206;28;20133;-72
2023/10/02 12:08:44;;;;;;;26.80;16.50;;;26.20;69.30;;;;;;5013089;28;20038;-72
2023/10/02 12:11:15;;;;;;;29.02;16.25;;;26.30;68.50;;;;;;5013591;28;20104;-74
2023/10/02 12:13:44;;;;;;;25.80;16.08;;;26.30;68.60;;;;;;5015841;28;20076;-73
2023/10/02 12:16:11;;;;;;;33.67;17.38;;;26.40;68.40;;;;;;5015278;28;20025;-73
2023/10/02 12:18:43;;;;;;;30.27;16.67;;;26.30;69.10;;;;;;5017263;28;20286;-76
2023/10/02 12:21:11;;;;;;;34.45;17.25;;;26.40;69.40;;;;;;5012415;28;20117;-74
2023/10/02 12:23:39;;;;;;;34.67;17.13;;;26.30;69.70;;;;;;5022358;28;20893;-72
2023/10/02 12:26:12;;;;;;;29.25;17.08;;;26.30;69.10;;;;;;5027758;28;20033;-72
2023/10/02 12:28:38;;;;;;;30.42;17.23;;;26.30;69.10;;;;;;5016005;28;20033;-72
2023/10/02 12:31:14;;;;;;;36.33;18.65;;;26.20;69.90;;;;;;5011653;28;20050;-73
2023/10/02 12:33:45;;;;;;;30.23;16.83;;;26.30;69.80;;;;;;5016804;28;20515;-74
2023/10/02 12:36:18;;;;;;;31.88;15.63;;;26.40;69.70;;;;;;5013877;28;20049;-73
2023/10/02 12:38:45;;;;;;;30.02;15.70;;;26.50;70.20;;;;;;5004801;28;20580;-74
2023/10/02 12:41:15;;;;;;;27.33;15.95;;;26.60;70.20;;;;;;5000002;28;20034;-72
2023/10/02 12:43:45;;;;;;;27.38;16.52;;;26.60;70.10;;;;;;5010070;28;20045;-76
2023/10/02 12:46:15;;;;;;;23.35;14.57;;;26.60;69.00;;;;;;5009779;28;20029;-77
2023/10/02 12:48:42;;;;;;;29.90;16.88;;;26.80;69.80;;;;;;5005344;28;20040;-75
2023/10/02 12:51:08;;;;;;;28.75;16.27;;;26.90;68.60;;;;;;5005304;28;20461;-73
2023/10/02 12:53:37;;;;;;;27.30;15.60;;;27.00;68.30;;;;;;5007737;28;20041;-74
2023/10/02 12:56:05;;;;;;;28.70;16.38;;;26.90;67.40;;;;;;5003579;28;20135;-73
2023/10/02 12:58:34;;;;;;;29.08;16.38;;;26.80;67.70;;;;;;5007788;28;20061;-73
2023/10/02 13:01:00;;;;;;;28.10;15.30;;;26.80;67.60;;;;;;5008405;28;20045;-73
2023/10/02 13:03:31;;;;;;;26.60;15.70;;;26.70;67.10;;;;;;5018445;28;20030;-74
2023/10/02 13:05:58;;;;;;;28.00;15.40;;;26.80;67.50;;;;;;5007884;28;20415;-73
2023/10/02 13:08:27;;;;;;;28.77;16.20;;;27.00;67.70;;;;;;5013768;28;20045;-75
2023/10/02 13:10:54;;;;;;;25.23;14.80;;;27.00;67.50;;;;;;5013755;28;20037;-73
2023/10/02 13:13:20;;;;;;;30.02;15.43;;;27.00;68.60;;;;;;5014074;28;20466;-73
2023/10/02 13:15:50;;;;;;;28.85;15.98;;;27.00;67.30;;;;;;5013260;28;20377;-74
2023/10/02 13:18:15;;;;;;;30.83;15.82;;;26.90;67.70;;;;;;5014720;28;20029;-72
2023/10/02 13:20:43;;;;;;;28.25;15.15;;;26.90;68.70;;;;;;5008634;28;20037;-72
2023/10/02 13:23:09;;;;;;;28.08;15.15;;;26.80;67.90;;;;;;5013739;28;20618;-74
2023/10/02 13:25:35;;;;;;;27.30;14.63;;;26.80;68.40;;;;;;5007353;28;20145;-73
2023/10/02 13:28:01;;;;;;;26.70;14.68;;;26.70;68.00;;;;;;5011667;28;20087;-72
2023/10/02 13:30:30;;;;;;;24.25;14.18;;;26.70;67.90;;;;;;5012299;28;20128;-73
2023/10/02 13:32:56;;;;;;;29.23;14.13;;;26.70;68.20;;;;;;5016505;28;20372;-72
2023/10/02 13:35:24;;;;;;;29.23;15.00;;;26.70;68.50;;;;;;5013503;28;20029;-74
2023/10/02 13:37:53;;;;;;;27.35;15.40;;;26.70;68.60;;;;;;5012483;28;20026;-75
2023/10/02 13:40:26;;;;;;;25.85;14.98;;;26.70;68.40;;;;;;5017640;28;20022;-74
2023/10/02 13:42:53;;;;;;;28.95;15.00;;;26.70;67.80;;;;;;5014840;28;20010;-73
2023/10/02 13:45:19;;;;;;;27.90;14.32;;;26.60;68.00;;;;;;5018631;28;20066;-73
2023/10/02 13:47:48;;;;;;;27.98;15.73;;;26.60;67.90;;;;;;5015976;28;20554;-74
2023/10/02 13:50:14;;;;;;;27.85;15.27;;;26.60;68.10;;;;;;5016918;28;20029;-72
2023/10/02 13:52:41;;;;;;;26.50;14.85;;;26.60;68.00;;;;;;5008990;28;20091;-72
2023/10/02 13:55:19;;;;;;;27.00;15.90;;;26.60;68.00;;;;;;5017835;28;20017;-74